Andersonville, Georgia
Current Conditions -  °F | °C
As of 3:15 AM on Monday 24 Nov 2014 (Local Time) from KACJ Reporting Station
Overcast Overcast  
Wind Chill: 64°   Ceiling: 500
Heat Index: 64°   Visibility: 10mi
Dew Point: 64°   Wind: 6mph
Humidity: 100%   Direction: 220°SW
Pressure: 29.82"   Gusts: NA
Location:  32.2°N, 84.14°W
Report Text: KACJ 240815Z AUTO 22005KT 10SM OVC005 18/18 A2982 RMK AO2
Loading
Personal Weather Stations






























Interactive Weather Map New forecast layout! Learn more

10-Day Weather Forecast

Advertisements
Track Severe Weather on mobile